Time;durP1;ratioP1;P1;durP2;ratioP2;P2;SDS_P1;SDS_P2;PMS_P1;PMS_P2;Temp;Humidity;BMP_temperature;BMP_pressure;BME280_temperature;BME280_humidity;BME280_pressure;Samples;Min_cycle;Max_cycle;Signal;HPM_P1;HPM_P2
2024/01/01 00:01:04;;;;;;;8.80;4.80;;;;;;;1.79;81.24;99666.00;78639;1295;3051449;-71
2024/01/01 00:03:31;;;;;;;10.10;4.90;;;;;;;1.49;82.03;99671.95;79856;1291;3014640;-69
2024/01/01 00:05:58;;;;;;;10.10;5.10;;;;;;;1.46;82.06;99679.44;79841;1289;3012861;-70
2024/01/01 00:08:26;;;;;;;11.50;5.00;;;;;;;1.29;82.66;99680.12;78597;1295;3050283;-69
2024/01/01 00:10:53;;;;;;;9.90;4.70;;;;;;;1.23;83.80;99672.83;79849;1292;3020479;-69
2024/01/01 00:13:20;;;;;;;10.10;4.80;;;;;;;1.80;82.63;99663.19;79817;1295;3012622;-70
2024/01/01 00:15:48;;;;;;;13.30;5.00;;;;;;;2.29;80.78;99664.17;78573;1294;3027350;-69
2024/01/01 00:18:14;;;;;;;9.80;4.20;;;;;;;2.28;79.75;99657.28;79875;1290;3013456;-69
2024/01/01 00:20:41;;;;;;;10.80;4.00;;;;;;;2.13;79.92;99654.02;79740;1292;3012955;-69
2024/01/01 00:23:09;;;;;;;8.00;4.30;;;;;;;1.99;80.38;99656.58;78552;1290;3026196;-70
2024/01/01 00:25:36;;;;;;;7.40;4.10;;;;;;;1.84;80.61;99649.48;79838;1293;3013226;-69
2024/01/01 00:28:08;;;;;;;8.70;4.30;;;;;;;1.69;81.11;99649.08;79753;1292;3011527;-69
2024/01/01 00:30:36;;;;;;;9.40;4.30;;;;;;;1.59;81.48;99645.35;78528;1295;3052308;-69
2024/01/01 00:33:03;;;;;;;7.40;3.80;;;;;;;1.59;81.44;99650.35;79712;1296;3013661;-72
2024/01/01 00:35:30;;;;;;;6.10;3.40;;;;;;;1.67;81.22;99644.30;79949;1294;3011879;-69
2024/01/01 00:37:58;;;;;;;7.00;3.40;;;;;;;2.13;81.05;99649.49;78564;1292;3025671;-69
2024/01/01 00:40:25;;;;;;;8.60;3.80;;;;;;;2.90;78.82;99643.64;79882;1293;3013087;-69
2024/01/01 00:42:52;;;;;;;6.70;3.50;;;;;;;2.95;77.34;99646.62;79760;1294;3013512;-68
2024/01/01 00:45:20;;;;;;;10.10;4.20;;;;;;;2.71;77.05;99648.46;78564;1294;3053291;-68
2024/01/01 00:47:47;;;;;;;5.90;3.70;;;;;;;2.38;77.97;99642.36;79847;1293;3013228;-69
2024/01/01 00:50:13;;;;;;;9.00;4.50;;;;;;;2.30;77.89;99642.20;79806;1293;3011882;-66
2024/01/01 00:52:42;;;;;;;10.80;5.70;;;;;;;2.09;78.40;99643.05;78616;1289;3026632;-68
2024/01/01 00:55:09;;;;;;;13.50;6.00;;;;;;;1.93;79.04;99641.16;79725;1296;3013668;-68
2024/01/01 00:57:36;;;;;;;10.70;5.60;;;;;;;1.69;80.04;99636.67;79827;1293;3011616;-69
2024/01/01 01:00:05;;;;;;;12.70;6.10;;;;;;;1.65;80.01;99644.17;78564;1294;3051396;-70
2024/01/01 01:02:31;;;;;;;12.00;5.90;;;;;;;1.60;79.96;99636.86;79880;1291;3013547;-69
2024/01/01 01:04:58;;;;;;;9.70;4.20;;;;;;;1.43;81.32;99632.20;79815;1291;3011770;-69
2024/01/01 01:07:26;;;;;;;9.20;4.00;;;;;;;2.09;81.30;99634.21;78584;1294;3048814;-67
2024/01/01 01:09:53;;;;;;;9.80;5.20;;;;;;;2.98;78.29;99635.82;79738;1292;3013669;-67
2024/01/01 01:12:19;;;;;;;12.50;6.90;;;;;;;2.72;77.15;99645.33;79817;1292;3011869;-69
2024/01/01 01:14:47;;;;;;;15.80;7.90;;;;;;;2.25;78.10;99644.58;78485;1292;3026327;-70
2024/01/01 01:17:14;;;;;;;16.60;6.90;;;;;;;2.02;78.78;99645.80;79877;1294;3018917;-69
2024/01/01 01:19:40;;;;;;;11.80;6.60;;;;;;;1.95;78.95;99646.64;79742;1290;3011431;-69
2024/01/01 01:22:08;;;;;;;13.10;6.90;;;;;;;1.61;79.60;99643.05;78398;1293;3025813;-70
2024/01/01 01:24:35;;;;;;;10.70;6.40;;;;;;;1.60;79.71;99641.16;79857;1292;3012942;-70
2024/01/01 01:27:02;;;;;;;13.90;7.00;;;;;;;1.37;80.37;99640.09;79743;1292;3013014;-68
2024/01/01 01:29:30;;;;;;;15.20;6.50;;;;;;;1.30;80.82;99642.14;78501;1296;3027864;-68
2024/01/01 01:34:51;;;;;;;15.90;6.90;;;;;;;1.04;81.87;99636.42;80381;1299;3013403;-70
2024/01/01 01:37:18;;;;;;;16.50;6.90;;;;;;;1.68;81.71;99631.31;79216;1300;3018755;-69
2024/01/01 01:39:46;;;;;;;16.10;7.10;;;;;;;1.79;80.40;99630.91;79377;1300;3011892;-67
2024/01/01 01:42:14;;;;;;;10.50;5.80;;;;;;;1.62;81.22;99633.36;78133;1300;3052241;-70
2024/01/01 01:44:40;;;;;;;15.30;6.80;;;;;;;1.66;80.76;99634.30;79323;1302;3013324;-70
2024/01/01 01:47:07;;;;;;;13.80;6.40;;;;;;;1.42;80.98;99639.99;79262;1297;3012988;-70
2024/01/01 01:49:35;;;;;;;9.30;5.10;;;;;;;1.17;81.76;99640.81;78331;1298;3026068;-69
2024/01/01 01:52:02;;;;;;;13.00;6.50;;;;;;;1.07;81.98;99639.45;79432;1299;3019105;-69
2024/01/01 01:54:30;;;;;;;12.90;6.30;;;;;;;1.03;82.17;99637.64;79486;1294;3011644;-70
2024/01/01 01:56:58;;;;;;;15.40;6.90;;;;;;;0.81;83.02;99640.64;78235;1299;3052319;-67
2024/01/01 01:59:25;;;;;;;13.30;7.10;;;;;;;0.65;84.06;99649.55;79379;1299;3013543;-70
2024/01/01 02:01:51;;;;;;;9.70;5.50;;;;;;;0.77;83.48;99644.33;79427;1299;3011713;-69
2024/01/01 02:04:19;;;;;;;10.50;5.60;;;;;;;1.34;83.43;99634.63;78261;1299;3027368;-70
2024/01/01 02:06:46;;;;;;;11.20;5.00;;;;;;;2.02;81.80;99635.23;79617;1294;3018847;-69
2024/01/01 02:09:13;;;;;;;10.40;5.80;;;;;;;2.31;79.62;99633.00;79539;1298;3011850;-67
2024/01/01 02:11:40;;;;;;;14.80;6.20;;;;;;;2.05;79.38;99637.41;78380;1295;3026267;-69
2024/01/01 02:14:11;;;;;;;13.80;6.60;;;;;;;1.72;80.04;99634.35;79620;1299;3013402;-70
2024/01/01 02:16:39;;;;;;;10.30;5.70;;;;;;;1.53;80.66;99637.00;78373;1298;3056833;-69
2024/01/01 02:19:19;;;;;;;13.60;6.70;;;;;;;1.34;80.97;99634.42;79479;1299;3018498;-69
2024/01/01 02:21:51;;;;;;;15.50;7.10;;;;;;;1.07;82.16;99633.42;78231;1297;3049960;-70
2024/01/01 02:24:18;;;;;;;11.80;6.10;;;;;;;0.84;82.94;99640.92;79695;1298;3011694;-69
2024/01/01 02:26:46;;;;;;;18.00;7.00;;;;;;;0.74;83.49;99640.93;78323;1299;3027287;-70
2024/01/01 02:29:13;;;;;;;11.60;6.50;;;;;;;0.82;83.63;99640.45;79631;1299;3019083;-69
2024/01/01 02:31:39;;;;;;;13.80;6.20;;;;;;;1.37;83.52;99634.89;79603;1298;3011656;-69
2024/01/01 02:34:07;;;;;;;10.50;5.30;;;;;;;1.97;81.30;99632.41;78420;1294;3025740;-71
2024/01/01 02:36:38;;;;;;;8.40;4.80;;;;;;;1.94;80.69;99627.64;79592;1294;3013123;-71
2024/01/01 02:39:07;;;;;;;13.90;6.80;;;;;;;1.83;80.43;99624.79;78404;1294;3052112;-67
2024/01/01 02:41:34;;;;;;;14.20;7.00;;;;;;;1.63;80.87;99625.23;79527;1299;3013609;-68
2024/01/01 02:44:01;;;;;;;13.50;6.50;;;;;;;1.53;81.12;99620.42;79639;1294;3013076;-67
2024/01/01 02:46:29;;;;;;;12.40;5.40;;;;;;;1.31;81.81;99615.88;78242;1294;3057352;-67
2024/01/01 02:48:56;;;;;;;9.30;4.90;;;;;;;1.13;82.85;99615.02;79486;1294;3013945;-68
2024/01/01 02:51:22;;;;;;;11.10;5.20;;;;;;;1.10;83.09;99615.44;79384;1294;3011630;-69
2024/01/01 02:53:50;;;;;;;10.70;4.70;;;;;;;1.20;83.10;99616.27;78250;1299;3025298;-67
2024/01/01 02:56:24;;;;;;;6.70;4.30;;;;;;;1.82;82.50;99615.30;79489;1294;3013547;-67
2024/01/01 02:58:52;;;;;;;10.30;4.90;;;;;;;2.48;79.88;99610.98;78347;1293;3050880;-70
2024/01/01 03:01:19;;;;;;;11.50;5.60;;;;;;;2.26;79.29;99617.58;79442;1294;3012987;-71
2024/01/01 03:03:45;;;;;;;12.20;4.80;;;;;;;1.83;79.85;99614.10;79468;1294;3013264;-68
2024/01/01 03:06:17;;;;;;;14.70;6.80;;;;;;;1.95;79.57;99617.27;78294;1298;3049913;-68
2024/01/01 03:08:45;;;;;;;16.30;7.80;;;;;;;1.59;79.67;99614.09;79586;1294;3011801;-68
2024/01/01 03:11:13;;;;;;;14.10;6.60;;;;;;;1.30;80.59;99612.61;78315;1294;3052157;-69
2024/01/01 03:13:40;;;;;;;14.10;7.10;;;;;;;0.91;82.11;99613.70;79540;1295;3013620;-68
2024/01/01 03:16:07;;;;;;;17.80;5.70;;;;;;;0.75;83.04;99614.00;79501;1294;3013599;-71
2024/01/01 03:18:35;;;;;;;12.80;6.00;;;;;;;0.62;83.31;99615.28;78205;1295;3048145;-68
2024/01/01 03:21:02;;;;;;;11.10;5.10;;;;;;;0.56;84.36;99622.09;79451;1299;3013350;-69
2024/01/01 03:23:29;;;;;;;10.80;4.90;;;;;;;1.08;84.44;99610.61;79354;1300;3012784;-68
2024/01/01 03:25:56;;;;;;;10.20;6.30;;;;;;;1.73;81.34;99610.16;78205;1294;3026179;-67
2024/01/01 03:28:23;;;;;;;16.40;6.70;;;;;;;1.50;81.05;99617.73;79381;1294;3013047;-68
2024/01/01 03:30:50;;;;;;;18.30;7.50;;;;;;;1.58;80.88;99614.11;79431;1294;3011795;-67
2024/01/01 03:33:18;;;;;;;17.80;7.50;;;;;;;1.17;81.11;99618.58;78168;1294;3027145;-67
2024/01/01 03:35:45;;;;;;;15.00;6.50;;;;;;;0.93;81.75;99617.30;79467;1294;3013523;-66
2024/01/01 03:38:11;;;;;;;16.20;7.10;;;;;;;0.80;81.90;99609.96;79441;1298;3013386;-69
2024/01/01 03:40:40;;;;;;;13.40;7.70;;;;;;;0.62;82.72;99619.77;78111;1299;3051071;-68
2024/01/01 03:43:07;;;;;;;14.70;6.70;;;;;;;0.08;84.92;99624.94;79599;1297;3013300;-67
2024/01/01 03:45:33;;;;;;;13.10;6.60;;;;;;;0.04;85.97;99624.83;79499;1299;3012795;-69
2024/01/01 03:48:02;;;;;;;14.70;6.30;;;;;;;0.05;86.18;99626.90;78182;1297;3048941;-67
2024/01/01 03:50:29;;;;;;;12.90;6.20;;;;;;;0.41;85.69;99630.80;79566;1294;3013716;-68
2024/01/01 03:52:56;;;;;;;19.00;7.60;;;;;;;1.12;83.99;99620.21;79440;1294;3011558;-69
2024/01/01 03:55:24;;;;;;;15.40;6.40;;;;;;;1.20;82.59;99621.44;78159;1299;3052190;-69
2024/01/01 03:57:52;;;;;;;15.20;6.30;;;;;;;0.83;82.79;99619.39;79594;1293;3013068;-67
2024/01/01 04:00:19;;;;;;;15.60;6.70;;;;;;;0.83;83.13;99619.56;79561;1295;3011668;-68
2024/01/01 04:02:48;;;;;;;14.00;6.60;;;;;;;0.71;83.58;99614.09;78243;1294;3048593;-67
2024/01/01 04:05:15;;;;;;;12.10;6.40;;;;;;;0.50;84.43;99616.86;79482;1295;3013511;-69
2024/01/01 04:07:42;;;;;;;14.90;6.90;;;;;;;0.32;85.47;99617.34;79507;1295;3011585;-71
2024/01/01 04:10:10;;;;;;;15.50;7.70;;;;;;;0.18;86.07;99617.21;78334;1294;3050902;-70
2024/01/01 04:12:37;;;;;;;16.40;7.50;;;;;;;-0.02;86.86;99614.41;79477;1297;3013152;-67
2024/01/01 04:15:04;;;;;;;16.80;8.00;;;;;;;-0.11;87.34;99618.34;79458;1294;3011453;-72
2024/01/01 04:17:33;;;;;;;16.70;6.90;;;;;;;-0.07;87.58;99618.27;78295;1299;3047909;-69
2024/01/01 04:20:00;;;;;;;17.60;7.70;;;;;;;0.28;86.63;99621.02;79597;1294;3013730;-70
2024/01/01 04:22:27;;;;;;;15.80;7.00;;;;;;;0.87;84.53;99611.90;79531;1294;3013097;-68
2024/01/01 04:24:55;;;;;;;15.60;7.90;;;;;;;0.94;83.28;99606.23;78273;1299;3025983;-68
2024/01/01 04:27:22;;;;;;;13.40;7.50;;;;;;;0.70;83.58;99604.95;79496;1293;3011638;-68
2024/01/01 04:29:48;;;;;;;12.00;7.10;;;;;;;0.63;83.97;99609.92;79493;1300;3011783;-69
2024/01/01 04:32:17;;;;;;;24.00;7.30;;;;;;;0.50;84.30;99612.55;78228;1294;3048355;-69
2024/01/01 04:34:44;;;;;;;14.20;6.80;;;;;;;0.25;84.87;99612.96;79471;1294;3012842;-69
2024/01/01 04:37:10;;;;;;;16.50;7.90;;;;;;;0.10;85.30;99613.54;79515;1294;3011911;-70
2024/01/01 04:39:38;;;;;;;19.50;8.60;;;;;;;-0.08;86.33;99611.74;78328;1299;3050322;-68
2024/01/01 04:42:05;;;;;;;14.80;7.70;;;;;;;-0.32;87.38;99616.04;79528;1294;3012654;-72
2024/01/01 04:44:32;;;;;;;16.50;6.70;;;;;;;-0.51;88.96;99618.37;79469;1299;3011843;-68
2024/01/01 04:47:00;;;;;;;12.00;6.30;;;;;;;0.04;88.53;99617.95;78285;1298;3025175;-69
2024/01/01 04:49:27;;;;;;;13.70;7.10;;;;;;;0.56;85.59;99617.64;79550;1299;3014705;-68
2024/01/01 04:51:54;;;;;;;16.00;6.80;;;;;;;0.45;84.91;99619.69;79483;1300;3011765;-68
2024/01/01 04:54:22;;;;;;;14.70;7.30;;;;;;;0.31;85.08;99616.66;78296;1300;3052069;-69
2024/01/01 04:56:49;;;;;;;13.30;7.60;;;;;;;0.42;85.27;99612.87;79506;1293;3013826;-66
2024/01/01 04:59:16;;;;;;;14.50;8.10;;;;;;;0.13;85.65;99609.88;79490;1296;3012872;-69
2024/01/01 05:01:44;;;;;;;17.40;7.80;;;;;;;0.05;86.50;99611.23;78273;1294;3028098;-67
2024/01/01 05:04:10;;;;;;;16.60;8.30;;;;;;;-0.10;87.01;99613.34;79521;1298;3018698;-68
2024/01/01 05:06:37;;;;;;;18.70;9.40;;;;;;;-0.17;87.74;99609.48;79471;1300;3011849;-67
2024/01/01 05:09:05;;;;;;;17.60;8.60;;;;;;;-0.13;87.58;99613.02;78251;1295;3025625;-69
2024/01/01 05:11:33;;;;;;;14.00;6.70;;;;;;;-0.20;87.59;99615.02;79475;1294;3013939;-68
2024/01/01 05:14:00;;;;;;;15.30;6.40;;;;;;;0.27;87.14;99615.16;79478;1294;3013033;-70
2024/01/01 05:16:28;;;;;;;12.10;6.20;;;;;;;0.74;84.67;99607.65;78317;1300;3049095;-68
2024/01/01 05:18:55;;;;;;;13.50;6.50;;;;;;;0.82;83.49;99605.45;79528;1294;3015742;-70
2024/01/01 05:21:22;;;;;;;13.70;6.70;;;;;;;0.62;83.83;99609.77;79478;1298;3013178;-68
2024/01/01 05:23:49;;;;;;;12.80;6.60;;;;;;;0.37;84.59;99613.27;78243;1294;3025118;-69
2024/01/01 05:26:16;;;;;;;14.00;6.10;;;;;;;0.28;85.07;99613.60;79478;1294;3013629;-69
2024/01/01 05:28:43;;;;;;;16.50;6.30;;;;;;;0.14;85.98;99612.95;79471;1295;3013626;-69
2024/01/01 05:31:11;;;;;;;12.10;6.30;;;;;;;0.01;86.16;99613.36;78322;1299;3029003;-70
2024/01/01 05:33:38;;;;;;;13.50;6.80;;;;;;;0.01;86.66;99611.45;79537;1294;3011828;-69
2024/01/01 05:36:11;;;;;;;16.90;7.10;;;;;;;0.02;86.82;99607.81;79459;1294;3011679;-67
2024/01/01 05:38:40;;;;;;;12.10;6.60;;;;;;;-0.03;86.77;99606.86;78207;1298;3051433;-70
2024/01/01 05:41:09;;;;;;;8.10;5.10;;;;;;;-0.02;86.70;99609.59;79699;1299;3013388;-69
2024/01/01 05:43:37;;;;;;;10.50;5.30;;;;;;;0.30;85.85;99609.09;78197;1299;3057264;-68
2024/01/01 05:46:05;;;;;;;10.70;5.90;;;;;;;0.78;83.89;99601.20;79604;1294;3011917;-71
2024/01/01 05:48:32;;;;;;;12.40;6.00;;;;;;;0.71;83.01;99602.71;79512;1294;3011889;-69
2024/01/01 05:51:00;;;;;;;9.00;5.30;;;;;;;0.71;82.95;99598.58;78264;1295;3052637;-68
2024/01/01 05:53:27;;;;;;;11.10;5.90;;;;;;;0.52;83.19;99605.96;79520;1294;3013439;-68
2024/01/01 05:55:54;;;;;;;10.80;6.00;;;;;;;0.32;83.69;99609.73;79428;1298;3011969;-68
2024/01/01 05:58:22;;;;;;;14.60;6.00;;;;;;;0.31;84.48;99608.73;78241;1299;3025115;-70
2024/01/01 06:00:48;;;;;;;13.10;6.10;;;;;;;0.18;84.83;99611.35;79567;1294;3013551;-69
2024/01/01 06:03:15;;;;;;;19.50;5.60;;;;;;;0.03;85.64;99609.34;79447;1294;3013467;-71
2024/01/01 06:05:43;;;;;;;11.80;5.90;;;;;;;-0.04;86.23;99608.59;78303;1298;3026229;-68
2024/01/01 06:08:10;;;;;;;12.40;6.10;;;;;;;-0.04;86.23;99609.98;79555;1295;3013854;-69
2024/01/01 06:10:37;;;;;;;13.60;5.30;;;;;;;-0.01;86.56;99611.65;79445;1298;3013048;-69
2024/01/01 06:13:04;;;;;;;12.80;4.80;;;;;;;0.46;85.12;99599.17;78192;1294;3026076;-68
2024/01/01 06:15:31;;;;;;;7.50;4.80;;;;;;;1.00;82.59;99592.15;79495;1294;3020607;-67
2024/01/01 06:17:58;;;;;;;9.80;4.70;;;;;;;1.00;81.74;99591.82;79455;1293;3011594;-68
2024/01/01 06:20:26;;;;;;;7.30;4.50;;;;;;;0.95;81.69;99585.54;78250;1294;3025616;-68
2024/01/01 06:22:53;;;;;;;8.50;4.30;;;;;;;1.00;81.61;99583.17;79565;1300;3013175;-68
2024/01/01 06:25:19;;;;;;;10.70;4.90;;;;;;;0.94;81.39;99580.20;79481;1294;3011975;-68
2024/01/01 06:27:47;;;;;;;11.30;5.30;;;;;;;0.87;81.51;99578.79;78270;1299;3026848;-69
2024/01/01 06:30:14;;;;;;;10.50;5.40;;;;;;;0.72;81.78;99580.79;79511;1297;3013382;-67
2024/01/01 06:32:41;;;;;;;11.50;6.00;;;;;;;0.52;82.89;99583.73;79296;1294;3013388;-66
2024/01/01 06:35:09;;;;;;;12.60;6.20;;;;;;;0.49;83.37;99579.64;78298;1294;3028259;-69
2024/01/01 06:37:35;;;;;;;11.60;5.70;;;;;;;0.44;83.13;99584.73;79512;1294;3013144;-69
2024/01/01 06:40:03;;;;;;;9.50;6.20;;;;;;;0.28;83.83;99586.39;79567;1298;3011486;-69
2024/01/01 06:42:31;;;;;;;11.70;6.00;;;;;;;0.31;84.19;99581.34;78316;1294;3057340;-69
2024/01/01 06:45:04;;;;;;;11.50;5.30;;;;;;;0.37;83.84;99570.91;79522;1300;3013873;-69
2024/01/01 06:47:33;;;;;;;11.00;5.80;;;;;;;0.91;82.56;99568.52;78315;1294;3050133;-66
2024/01/01 06:50:00;;;;;;;8.80;5.20;;;;;;;1.58;80.01;99566.45;79517;1300;3013444;-67
2024/01/01 06:52:26;;;;;;;14.70;6.40;;;;;;;1.51;79.15;99567.64;79534;1295;3013522;-69
2024/01/01 06:54:54;;;;;;;12.20;6.00;;;;;;;1.25;80.45;99564.74;78262;1294;3026466;-69
2024/01/01 06:57:21;;;;;;;12.40;6.10;;;;;;;1.24;80.48;99566.15;79457;1295;3013076;-66
2024/01/01 06:59:48;;;;;;;12.40;6.10;;;;;;;0.99;81.53;99562.16;79465;1300;3012131;-67
2024/01/01 07:02:16;;;;;;;14.60;6.60;;;;;;;0.89;82.47;99562.36;78187;1299;3025560;-69
2024/01/01 07:04:43;;;;;;;11.60;5.80;;;;;;;0.84;83.06;99561.25;79596;1298;3013635;-69
2024/01/01 07:07:10;;;;;;;15.00;6.60;;;;;;;0.80;83.67;99558.41;79364;1295;3012815;-68
2024/01/01 07:09:38;;;;;;;11.90;6.00;;;;;;;0.86;84.20;99560.86;78263;1300;3051854;-69
2024/01/01 07:12:20;;;;;;;11.90;6.10;;;;;;;0.82;84.28;99561.80;79593;1294;3015013;-70
2024/01/01 07:14:49;;;;;;;12.40;5.80;;;;;;;0.73;84.86;99563.88;78288;1300;3053470;-70
2024/01/01 07:17:15;;;;;;;10.70;4.50;;;;;;;0.72;85.58;99566.14;79422;1297;3013619;-68
2024/01/01 07:19:42;;;;;;;10.50;5.00;;;;;;;1.26;84.11;99564.73;79514;1300;3011954;-67
2024/01/01 07:22:10;;;;;;;9.50;4.90;;;;;;;1.66;82.32;99563.51;78257;1295;3025099;-69
2024/01/01 07:24:37;;;;;;;10.90;5.20;;;;;;;1.96;80.98;99560.23;79516;1294;3011636;-69
2024/01/01 07:27:04;;;;;;;10.70;5.60;;;;;;;1.75;81.40;99560.73;79513;1299;3011517;-69
2024/01/01 07:29:32;;;;;;;13.50;5.80;;;;;;;1.65;82.42;99560.42;78259;1294;3025841;-70
2024/01/01 07:31:59;;;;;;;11.30;5.70;;;;;;;1.49;83.14;99563.19;79562;1300;3018640;-68
2024/01/01 07:34:26;;;;;;;13.50;6.00;;;;;;;1.46;83.93;99563.27;79502;1300;3013007;-70
2024/01/01 07:36:54;;;;;;;14.60;6.70;;;;;;;1.38;84.45;99565.34;78242;1295;3028573;-67
2024/01/01 07:39:23;;;;;;;11.30;5.90;;;;;;;1.30;84.73;99569.30;79558;1294;3013786;-69
2024/01/01 07:41:52;;;;;;;14.40;6.30;;;;;;;1.22;85.26;99564.46;78976;1294;3011404;-69
2024/01/01 07:44:20;;;;;;;12.00;5.30;;;;;;;1.31;85.54;99569.27;79490;1295;3012954;-69
2024/01/01 07:46:48;;;;;;;10.70;5.90;;;;;;;1.79;84.40;99572.20;79445;1294;3011877;-69
2024/01/01 07:49:16;;;;;;;12.90;5.20;;;;;;;2.11;82.71;99574.05;78397;1293;3053424;-70
2024/01/01 07:51:43;;;;;;;11.40;5.70;;;;;;;2.18;82.42;99576.46;79335;1294;3013449;-70
2024/01/01 07:54:10;;;;;;;13.60;6.20;;;;;;;2.04;83.03;99573.16;79555;1295;3011797;-66
2024/01/01 07:56:43;;;;;;;10.40;5.40;;;;;;;2.02;83.29;99573.73;78222;1300;3026265;-69
2024/01/01 07:59:11;;;;;;;14.80;6.10;;;;;;;1.96;83.56;99572.14;79508;1294;3011644;-70
2024/01/01 08:01:40;;;;;;;13.50;6.30;;;;;;;1.97;84.10;99565.73;78247;1294;3052916;-73
2024/01/01 08:04:07;;;;;;;14.20;6.80;;;;;;;1.89;84.54;99569.22;79593;1299;3011813;-69
2024/01/01 08:06:34;;;;;;;13.80;7.40;;;;;;;1.85;85.43;99568.09;79485;1294;3011604;-71
2024/01/01 08:09:02;;;;;;;10.70;5.60;;;;;;;1.88;85.75;99564.92;78274;1294;3068636;-69
2024/01/01 08:11:29;;;;;;;11.60;5.60;;;;;;;2.30;85.08;99559.73;79575;1294;3012146;-70
2024/01/01 08:13:56;;;;;;;11.60;6.10;;;;;;;2.90;82.64;99554.70;79552;1294;3011630;-69
2024/01/01 08:16:24;;;;;;;14.30;7.10;;;;;;;2.94;82.18;99555.80;78241;1294;3052575;-69
2024/01/01 08:18:53;;;;;;;14.10;7.00;;;;;;;2.89;82.27;99557.33;79579;1299;3013215;-69
2024/01/01 08:21:20;;;;;;;13.60;6.90;;;;;;;2.83;82.76;99556.63;79525;1300;3013551;-70
2024/01/01 08:23:48;;;;;;;16.20;6.90;;;;;;;2.79;83.22;99560.04;78259;1298;3068920;-71
2024/01/01 08:26:15;;;;;;;13.60;7.60;;;;;;;2.78;83.51;99560.40;79477;1294;3013497;-71
2024/01/01 08:28:42;;;;;;;11.90;6.80;;;;;;;2.74;84.05;99555.15;79516;1294;3012851;-70
2024/01/01 08:31:10;;;;;;;17.50;9.00;;;;;;;2.77;84.49;99550.40;78256;1295;3026069;-71
2024/01/01 08:33:36;;;;;;;12.40;6.40;;;;;;;2.92;84.02;99545.99;79565;1295;3013831;-70
2024/01/01 08:36:03;;;;;;;11.70;6.30;;;;;;;3.35;82.81;99547.71;79511;1294;3011545;-68
2024/01/01 08:38:32;;;;;;;11.80;6.40;;;;;;;3.84;80.75;99548.31;78239;1294;3068182;-70
2024/01/01 08:40:58;;;;;;;12.30;6.50;;;;;;;3.72;80.76;99545.03;79547;1299;3018570;-71
2024/01/01 08:43:26;;;;;;;13.30;7.50;;;;;;;3.72;80.81;99550.43;79525;1294;3011939;-70
2024/01/01 08:45:55;;;;;;;12.60;6.70;;;;;;;3.61;81.50;99548.30;78317;1294;3052636;-70
2024/01/01 08:48:22;;;;;;;16.20;7.70;;;;;;;3.58;81.88;99547.38;79591;1300;3013514;-70
2024/01/01 08:50:48;;;;;;;15.00;6.50;;;;;;;3.64;82.25;99541.48;79498;1298;3013206;-69
2024/01/01 08:53:16;;;;;;;14.00;7.10;;;;;;;3.70;81.87;99533.66;78222;1295;3068735;-70
2024/01/01 08:55:43;;;;;;;13.00;6.60;;;;;;;3.70;81.95;99532.45;79533;1294;3015331;-70
2024/01/01 08:58:10;;;;;;;13.50;7.00;;;;;;;3.50;82.67;99530.13;79548;1294;3011434;-69
2024/01/01 09:00:37;;;;;;;12.50;6.70;;;;;;;3.57;82.89;99524.55;78326;1298;3025957;-70
2024/01/01 09:03:04;;;;;;;12.70;5.70;;;;;;;3.67;82.31;99521.98;79588;1299;3013418;-71
2024/01/01 09:05:31;;;;;;;12.20;5.90;;;;;;;4.17;80.77;99516.20;79509;1300;3011786;-69
2024/01/01 09:07:59;;;;;;;11.40;5.50;;;;;;;4.68;78.58;99511.02;78304;1295;3024855;-72
2024/01/01 09:10:26;;;;;;;13.00;5.40;;;;;;;4.74;77.42;99510.59;79574;1294;3014852;-70
2024/01/01 09:12:53;;;;;;;11.60;5.20;;;;;;;4.50;77.92;99512.13;79525;1295;3011653;-70
2024/01/01 09:15:21;;;;;;;8.30;4.70;;;;;;;4.34;78.25;99512.36;78201;1296;3052437;-71
2024/01/01 09:17:47;;;;;;;9.80;4.70;;;;;;;4.29;78.88;99506.64;79522;1300;3013623;-70
2024/01/01 09:20:14;;;;;;;11.50;4.90;;;;;;;4.26;78.67;99500.64;79595;1299;3011947;-69
2024/01/01 09:22:42;;;;;;;9.00;5.00;;;;;;;4.27;78.62;99496.42;78240;1300;3028786;-69
2024/01/01 09:25:09;;;;;;;12.90;5.40;;;;;;;4.30;78.57;99492.35;79458;1298;3013130;-69
2024/01/01 09:27:36;;;;;;;11.30;4.70;;;;;;;4.29;78.79;99487.38;79472;1300;3011512;-71
2024/01/01 09:30:05;;;;;;;14.10;6.10;;;;;;;4.33;78.46;99484.13;78325;1299;3026731;-70
2024/01/01 09:32:31;;;;;;;11.20;4.70;;;;;;;4.35;77.98;99485.60;79602;1300;3013341;-68
2024/01/01 09:34:58;;;;;;;10.90;4.60;;;;;;;4.35;77.87;99484.56;79610;1300;3011558;-69
2024/01/01 09:37:27;;;;;;;9.50;4.70;;;;;;;4.48;77.71;99476.83;78155;1300;3067993;-72
2024/01/01 09:39:54;;;;;;;8.80;4.40;;;;;;;4.61;77.14;99480.02;79449;1298;3013386;-70
2024/01/01 09:42:20;;;;;;;14.10;5.80;;;;;;;4.77;76.82;99483.95;79485;1295;3012991;-72
2024/01/01 09:44:49;;;;;;;8.30;4.30;;;;;;;4.96;75.98;99476.83;78179;1297;3027611;-69
2024/01/01 09:47:16;;;;;;;10.40;4.80;;;;;;;5.02;75.37;99472.77;79493;1300;3013245;-73
2024/01/01 09:49:43;;;;;;;8.40;4.20;;;;;;;4.99;75.23;99469.79;79571;1297;3011901;-70
2024/01/01 09:52:14;;;;;;;9.40;3.70;;;;;;;5.03;74.70;99458.86;78243;1298;3068365;-72
2024/01/01 09:54:41;;;;;;;8.10;3.60;;;;;;;5.11;74.30;99452.31;79455;1300;3013011;-70
2024/01/01 09:57:10;;;;;;;9.80;4.30;;;;;;;5.08;74.42;99448.59;78921;1295;3013300;-72
2024/01/01 09:59:38;;;;;;;10.60;3.90;;;;;;;5.04;74.61;99450.30;79571;1300;3015557;-68
2024/01/01 10:02:06;;;;;;;9.40;3.80;;;;;;;5.10;74.27;99449.58;79496;1296;3011609;-68
2024/01/01 10:04:34;;;;;;;7.70;3.90;;;;;;;5.19;74.08;99446.09;78316;1300;3052431;-72
2024/01/01 10:07:01;;;;;;;6.70;4.00;;;;;;;5.24;73.77;99442.75;79542;1299;3013621;-67
2024/01/01 10:09:29;;;;;;;12.80;4.50;;;;;;;5.38;73.89;99434.59;79492;1299;3013633;-70
2024/01/01 10:12:09;;;;;;;10.00;5.30;;;;;;;5.48;73.45;99432.09;78275;1298;3055742;-69
2024/01/01 10:14:47;;;;;;;8.30;4.40;;;;;;;5.70;73.03;99419.76;78246;1300;3050025;-69
2024/01/01 10:17:16;;;;;;;9.80;4.10;;;;;;;5.89;71.38;99413.41;78189;1294;3052707;-72
2024/01/01 10:19:50;;;;;;;9.90;3.90;;;;;;;5.91;70.79;99413.68;79545;1298;3013837;-70
2024/01/01 10:22:19;;;;;;;8.30;3.40;;;;;;;5.97;70.38;99400.23;78362;1300;3052933;-72
2024/01/01 10:24:55;;;;;;;11.60;4.60;;;;;;;6.10;69.94;99395.48;79525;1299;3013621;-72
2024/01/01 10:27:23;;;;;;;13.00;5.10;;;;;;;6.28;69.38;99390.38;78397;1299;3051477;-70
2024/01/01 10:29:50;;;;;;;10.70;4.50;;;;;;;6.30;69.24;99384.01;79465;1294;3013669;-71
2024/01/01 10:32:17;;;;;;;7.30;3.80;;;;;;;6.02;69.20;99384.17;79475;1295;3012996;-70
2024/01/01 10:34:46;;;;;;;7.20;3.80;;;;;;;5.92;69.44;99370.84;78446;1299;3026202;-69
2024/01/01 10:37:16;;;;;;;7.30;3.90;;;;;;;5.97;69.86;99368.02;79626;1299;3013820;-70
2024/01/01 10:39:43;;;;;;;7.80;3.90;;;;;;;5.96;69.86;99361.99;78174;1300;3068473;-68
2024/01/01 10:42:10;;;;;;;5.80;3.60;;;;;;;5.96;70.15;99355.56;79370;1295;3012823;-70
2024/01/01 10:44:37;;;;;;;7.80;3.90;;;;;;;6.05;69.75;99349.81;79497;1295;3011648;-70
2024/01/01 10:47:12;;;;;;;10.00;4.50;;;;;;;5.97;70.20;99344.58;78180;1294;3026338;-69
2024/01/01 10:49:50;;;;;;;8.00;3.80;;;;;;;5.89;70.71;99340.72;78935;1300;3011667;-70
2024/01/01 10:52:47;;;;;;;7.40;4.00;;;;;;;5.74;71.40;99341.73;78256;1300;3049987;-74
2024/01/01 10:55:19;;;;;;;9.70;5.20;;;;;;;5.79;71.55;99341.69;78308;1299;3052470;-73
2024/01/01 10:57:57;;;;;;;8.50;3.80;;;;;;;5.64;71.65;99330.50;79469;1295;3011946;-71
2024/01/01 11:00:49;;;;;;;10.20;3.90;;;;;;;5.65;71.98;99323.49;78246;1294;3068411;-72
2024/01/01 11:03:16;;;;;;;7.30;3.70;;;;;;;5.68;71.73;99317.44;78228;1294;3051746;-67
2024/01/01 11:05:44;;;;;;;7.50;4.30;;;;;;;5.61;72.07;99313.80;79554;1297;3013815;-70
2024/01/01 11:08:11;;;;;;;11.00;4.00;;;;;;;5.56;72.30;99311.58;79504;1295;3011654;-67
2024/01/01 11:10:41;;;;;;;6.70;3.80;;;;;;;5.57;72.49;99306.81;78324;1300;3049960;-71
2024/01/01 11:13:12;;;;;;;9.40;4.20;;;;;;;5.59;72.39;99306.74;79468;1299;3011699;-71
2024/01/01 11:15:45;;;;;;;7.10;3.70;;;;;;;5.56;72.26;99304.39;78323;1300;3051992;-71
2024/01/01 11:18:17;;;;;;;10.70;4.70;;;;;;;5.69;72.11;99300.58;79470;1300;3013276;-69
2024/01/01 11:20:52;;;;;;;8.40;3.80;;;;;;;5.83;71.81;99297.16;78185;1300;3052253;-69
2024/01/01 11:23:43;;;;;;;8.00;3.70;;;;;;;5.88;71.60;99298.17;78209;1300;3055282;-72
2024/01/01 11:26:23;;;;;;;6.20;3.40;;;;;;;5.77;71.64;99294.49;78136;1299;3049351;-73